Latest Weather Observations for Giles*

IDD60801

Issued at 11:35 am CST Saturday 2 August 2014 (issued every 30 minutes, with the page automatically refreshed every 10 minutes)

About weather observations | Map of weather stations | Latest weather observations for NT | Other Formats
Station Details ID: 013017 Name: GILES METEOROLOGICAL OFFICE Lat: -25.03 Lon: 128.30 Height: 598.0 m
Data from the previous 72 hours. | See also: Recent months at Giles*

* Giles observations are collected in the South Australia time zone, which includes daylight saving in the summer period. Therefore, Rain since 9am value is with respect to South Australia local time.

Date/Time
CST
Temp
°C
App
Temp
°C
Dew
Point
Rel
Hum
%
Delta-T
°C
Wind Press
QNH
hPa
Press
MSL
hPa
Rain
since 9 am
mm
Dir
 
Spd
km/h
Gust
km/h
Spd
kts
Gust
kts
02/11:30am 16.2 10.6 -2.5 27 7.8 E 17 24 9 13 1025.2 - 0.0
02/11:00am 15.4 9.5 -2.5 29 7.4 E 19 28 10 15 1025.5 - 0.0
02/10:30am 14.5 8.0 -2.6 30 7.0 ENE 22 32 12 17 1025.6 - 0.0
02/10:00am 13.5 7.0 -2.5 33 6.5 E 22 33 12 18 1025.3 - 0.0
02/09:30am 12.3 5.1 -2.4 36 5.9 E 26 43 14 23 1025.1 - 0.0
02/09:00am 11.7 4.8 -2.6 37 5.7 E 24 37 13 20 1024.9 1023.7 0.0
02/08:30am 10.1 4.9 -2.4 41 4.9 E 15 26 8 14 1024.8 - 0.0
02/08:00am 9.0 4.3 -2.0 46 4.3 E 13 19 7 10 1024.5 - 0.0
02/07:30am 8.5 4.2 -1.7 48 4.0 ENE 11 17 6 9 1024.2 - 0.0
02/07:00am 8.0 4.2 -1.1 52 3.6 ENE 9 13 5 7 1023.9 - 0.0
02/06:30am 8.2 4.3 -1.4 51 3.8 E 9 15 5 8 1023.8 - 0.0
02/06:00am 7.7 3.5 -1.2 53 3.5 E 11 15 6 8 1023.5 1022.3 0.0
02/05:30am 7.1 3.3 -1.0 56 3.2 E 9 15 5 8 1023.4 - 0.0
02/05:00am 8.2 4.7 -1.4 51 3.8 E 7 9 4 5 1023.4 - 0.0
02/04:30am 9.0 3.2 -1.6 47 4.2 E 19 26 10 14 1023.4 - 0.0
02/04:00am 8.0 3.4 -1.4 51 3.7 E 13 20 7 11 1023.5 - 0.0
02/03:30am 7.8 3.1 -1.7 51 3.7 ESE 13 19 7 10 1023.6 - 0.0
02/03:00am 8.4 3.7 -1.8 48 4.0 ESE 13 19 7 10 1023.7 1022.5 0.0
02/02:30am 8.7 3.3 -1.7 48 4.1 ESE 17 22 9 12 1023.8 - 0.0
02/02:00am 7.4 2.7 -1.9 51 3.6 SE 13 19 7 10 1024.1 - 0.0
02/01:30am 8.0 2.5 -2.1 49 3.9 ESE 17 22 9 12 1024.1 - 0.0
02/01:00am 8.3 2.4 -2.0 48 4.0 ESE 19 24 10 13 1024.3 - 0.0
02/12:30am 8.3 2.8 -2.0 48 4.0 ESE 17 20 9 11 1024.5 - 0.0
02/12:00am 8.3 2.5 -1.6 49 3.9 SE 19 22 10 12 1024.6 1023.4 0.0
 
Date/Time
CST
Temp
°C
App
Temp
°C
Dew
Point
Rel
Hum
%
Delta-T
°C
Wind Press
QNH
hPa
Press
MSL
hPa
Rain
since 9 am
mm
Dir
 
Spd
km/h
Gust
km/h
Spd
kts
Gust
kts
01/11:30pm 8.8 3.3 -1.9 47 4.2 SE 17 19 9 10 1024.9 - 0.0
01/11:00pm 9.6 4.5 -1.7 45 4.5 ESE 15 19 8 10 1024.8 - 0.0
01/10:30pm 9.9 4.8 -1.6 44 4.6 ESE 15 19 8 10 1024.6 - 0.0
01/10:00pm 10.8 5.7 -1.9 41 5.1 ESE 15 17 8 9 1024.2 - 0.0
01/09:30pm 11.6 6.2 -1.7 39 5.4 ESE 17 19 9 10 1024.2 - 0.0
01/09:00pm 12.5 7.4 -1.6 37 5.8 SE 15 19 8 10 1024.0 1022.8 0.0
01/08:30pm 13.5 8.5 -1.4 35 6.2 ESE 15 19 8 10 1023.7 - 0.0
01/08:00pm 13.9 8.9 -1.0 36 6.3 ESE 15 19 8 10 1023.4 - 0.0
01/07:30pm 14.6 10.1 -0.6 35 6.5 ESE 13 15 7 8 1023.0 - 0.0
01/07:00pm 15.6 11.1 -0.2 34 6.9 SE 13 17 7 9 1022.6 - 0.0
01/06:30pm 17.4 12.1 -0.6 29 7.9 SE 17 22 9 12 1022.3 - 0.0
01/06:00pm 18.5 12.7 -1.4 26 8.7 SSE 19 24 10 13 1022.0 1020.8 0.0
01/05:30pm 19.2 13.2 -1.2 25 9.0 SSE 20 28 11 15 1021.8 - 0.0
01/05:00pm 19.7 14.4 -0.6 25 9.1 ESE 17 24 9 13 1021.7 - 0.0
01/04:30pm 19.5 13.6 -0.6 26 9.0 ESE 20 26 11 14 1021.7 - 0.0
01/04:00pm 19.7 14.4 -0.6 25 9.1 SSE 17 26 9 14 1021.7 - 0.0
01/03:30pm 19.6 13.8 -0.4 26 9.0 SE 20 28 11 15 1021.9 - 0.0
01/03:00pm 19.5 13.7 -0.2 26 8.9 SE 20 28 11 15 1022.1 1020.9 0.0
01/02:30pm 18.8 13.2 0.2 28 8.4 SSE 19 32 10 17 1022.4 - 0.0
01/02:00pm 17.9 12.4 0.7 31 7.8 SE 19 28 10 15 1023.0 - 0.0
01/01:30pm 17.0 11.5 0.8 33 7.3 SE 19 28 10 15 1023.5 - 0.0
01/01:00pm 16.6 11.6 1.4 36 6.9 ESE 17 28 9 15 1024.0 - 0.0
01/12:30pm 16.4 10.9 2.1 38 6.6 SE 20 30 11 16 1024.6 - 0.0
01/12:00pm 15.1 9.3 2.2 41 5.9 ESE 22 33 12 18 1024.9 1023.7 0.0
01/11:30am 14.3 8.2 2.5 45 5.4 ESE 24 33 13 18 1025.2 - 0.0
01/11:00am 13.7 8.1 3.3 49 4.8 ESE 22 30 12 16 1025.4 - 0.0
01/10:30am 12.4 6.1 3.5 54 4.1 ESE 26 35 14 19 1025.6 - 0.0
01/10:00am 11.4 4.8 4.0 60 3.4 SE 28 35 15 19 1025.4 - 0.0
01/09:30am 10.4 4.1 3.8 63 3.0 ESE 26 33 14 18 1025.1 - 0.0
01/09:00am 9.0 2.3 3.9 70 2.3 SE 28 39 15 21 1025.0 1023.8 0.0
01/08:30am 7.8 2.5 3.2 73 2.0 SE 20 28 11 15 1024.8 - 0.0
01/08:00am 6.5 1.7 2.5 75 1.7 ESE 17 22 9 12 1024.6 - 0.0
01/07:30am 5.8 0.9 2.0 76 1.6 SE 17 22 9 12 1024.1 - 0.0
01/07:00am 6.0 1.1 1.9 75 1.7 ESE 17 20 9 11 1023.7 - 0.0
01/06:30am 6.8 1.9 2.1 72 2.0 SE 17 20 9 11 1023.5 - 0.0
01/06:00am 7.4 2.1 2.0 68 2.3 SE 19 24 10 13 1023.2 1022.0 0.0
01/05:30am 7.8 2.5 1.9 66 2.5 SE 19 24 10 13 1022.9 - 0.0
01/05:00am 7.8 3.2 1.6 65 2.6 ESE 15 19 8 10 1022.8 - 0.0
01/04:30am 7.9 3.7 1.5 64 2.7 SE 13 15 7 8 1022.5 - 0.0
01/04:00am 8.1 3.9 1.5 63 2.8 SE 13 17 7 9 1022.5 - 0.0
01/03:30am 8.6 4.3 1.0 59 3.2 ESE 13 15 7 8 1022.5 - 0.0
01/03:00am 9.5 5.2 1.0 55 3.6 SE 13 17 7 9 1022.5 1021.3 0.0
01/02:30am 10.0 5.7 1.1 54 3.8 ESE 13 17 7 9 1022.4 - 0.0
01/02:00am 10.4 6.5 1.0 52 4.0 SE 11 15 6 8 1022.5 - 0.0
01/01:30am 11.3 7.7 0.5 47 4.6 ESE 9 13 5 7 1022.5 - 0.0
01/01:00am 11.3 7.8 1.1 49 4.4 SE 9 13 5 7 1022.3 - 0.0
01/12:30am 11.2 8.9 0.7 48 4.5 ESE 2 9 1 5 1022.3 - 0.0
01/12:00am 12.1 8.1 0.4 44 5.0 ESE 11 13 6 7 1022.4 1021.2 0.0
 
Date/Time
CST
Temp
°C
App
Temp
°C
Dew
Point
Rel
Hum
%
Delta-T
°C
Wind Press
QNH
hPa
Press
MSL
hPa
Rain
since 9 am
mm
Dir
 
Spd
km/h
Gust
km/h
Spd
kts
Gust
kts
31/11:30pm 13.6 9.2 0.2 40 5.8 SSE 13 17 7 9 1022.1 - 0.0
31/11:00pm 14.7 8.9 -0.4 35 6.5 SSE 20 28 11 15 1021.8 - 0.0
31/10:30pm 15.1 9.3 -1.8 31 7.1 S 19 24 10 13 1021.6 - 0.0
31/10:00pm 15.5 10.0 -2.2 29 7.4 S 17 20 9 11 1021.4 - 0.0
31/09:30pm 15.7 9.7 -3.4 26 7.8 S 19 26 10 14 1021.3 - 0.0
31/09:00pm 14.5 9.1 -4.6 26 7.5 S 15 19 8 10 1021.3 1020.6 0.0
31/08:30pm 14.3 9.3 -4.6 26 7.4 S 13 15 7 8 1021.1 - 0.0
31/08:00pm 16.2 11.4 -6.4 20 8.7 S 11 13 6 7 1020.6 - 0.0
31/07:30pm 17.1 12.4 -5.2 21 8.9 S 11 13 6 7 1020.1 - 0.0
31/07:00pm 18.4 13.7 -5.0 20 9.5 S 11 13 6 7 1019.8 - 0.0
31/06:30pm 20.8 14.9 -9.4 12 11.5 SSW 15 19 8 10 1019.6 - 0.0
31/06:00pm 22.0 16.1 -10.0 11 12.2 S 15 20 8 11 1019.5 1018.8 0.0
31/05:30pm 22.8 16.1 -10.6 10 12.7 SW 19 24 10 13 1019.3 - 0.0
31/05:00pm 23.0 16.9 -7.9 12 12.4 SSW 17 24 9 13 1019.2 - 0.0
31/04:30pm 23.5 17.3 -8.8 11 12.8 WSW 17 20 9 11 1019.0 - 0.0
31/04:00pm 23.8 17.2 -9.7 10 13.1 SW 19 30 10 16 1019.2 - 0.0
31/03:30pm 24.2 17.7 -8.3 11 13.1 SSW 19 30 10 16 1019.3 - 0.0
31/03:00pm 23.0 16.9 -7.3 12 12.3 SW 17 32 9 17 1019.5 1018.8 0.0
31/02:30pm 23.4 18.0 -8.5 11 12.7 S 13 26 7 14 1019.8 - 0.0
31/02:00pm 23.2 16.6 -9.2 11 12.7 SW 19 33 10 18 1020.1 - 0.0
31/01:30pm 23.4 17.4 -6.7 13 12.4 SSW 17 26 9 14 1020.4 - 0.0
31/01:00pm 22.7 16.8 -6.0 14 11.9 SW 17 26 9 14 1021.1 - 0.0
31/12:30pm 22.0 16.8 -6.4 14 11.6 S 13 20 7 11 1021.3 - 0.0
31/12:00pm 22.3 16.0 -6.1 14 11.7 SSE 19 28 10 15 1021.8 1021.1 0.0
31/11:30am 21.3 14.4 -6.2 15 11.2 SSE 22 32 12 17 1022.1 - 0.0
31/11:00am 21.0 14.5 -6.0 16 11.0 S 20 30 11 16 1022.4 - 0.0
31/10:30am 20.1 14.6 -5.3 17 10.4 S 15 20 8 11 1022.4 - 0.0
31/10:00am 19.2 15.3 -1.6 24 9.1 SSE 9 13 5 7 1022.4 - 0.0
31/09:30am 17.9 13.6 -1.9 26 8.5 SE 11 13 6 7 1022.2 - 0.0
31/09:00am 16.2 12.5 -0.2 32 7.2 ESE 9 13 5 7 1022.0 1021.4 0.0
31/08:30am 11.5 8.0 1.1 49 4.5 E 9 11 5 6 1022.0 - 0.0
31/08:00am 11.9 7.5 0.4 45 4.9 E 13 13 7 7 1021.6 - 0.0
31/07:30am 10.1 6.0 0.0 49 4.2 E 11 13 6 7 1021.4 - 0.0
31/07:00am 11.1 7.1 0.2 47 4.6 E 11 13 6 7 1021.2 - 0.0
31/06:30am 12.0 7.5 0.0 43 5.1 E 13 15 7 8 1021.0 - 0.0
31/06:00am 11.8 7.4 0.3 45 4.9 E 13 15 7 8 1020.6 1020.0 0.0
31/05:30am 10.8 6.4 0.4 48 4.4 E 13 15 7 8 1020.6 - 0.0
31/05:00am 7.6 3.5 0.0 58 3.1 ESE 11 13 6 7 1020.5 - 0.0
31/04:30am 7.7 4.0 -0.2 57 3.2 ESE 9 9 5 5 1020.6 - 0.0
31/04:28am 8.0 4.3 0.2 58 3.2 ESE 9 11 5 6 1020.5 - 0.0
31/04:00am 13.0 8.6 0.2 41 5.5 E 13 15 7 8 1020.6 - 0.0
31/03:30am 10.5 6.4 0.0 48 4.4 E 11 15 6 8 1020.8 - 0.0
31/03:00am 13.3 8.8 0.0 40 5.7 E 13 15 7 8 1021.0 1020.3 0.0
31/02:30am 13.2 8.7 -0.1 40 5.7 E 13 15 7 8 1021.1 - 0.0
31/02:00am 13.3 9.2 0.0 40 5.7 ESE 11 13 6 7 1021.1 - 0.0
31/01:30am 13.6 9.9 -0.1 39 5.9 SE 9 11 5 6 1021.2 - 0.0
31/01:00am 14.9 11.7 -0.7 34 6.7 S 6 9 3 5 1021.3 - 0.0
31/12:30am 14.8 11.6 -0.2 36 6.5 S 6 9 3 5 1021.4 - 0.0
31/12:00am 15.1 13.1 -0.4 34 6.7 CALM 0 0 0 0 1021.3 1020.6 0.0
 
Date/Time
CST
Temp
°C
App
Temp
°C
Dew
Point
Rel
Hum
%
Delta-T
°C
Wind Press
QNH
hPa
Press
MSL
hPa
Rain
since 9 am
mm
Dir
 
Spd
km/h
Gust
km/h
Spd
kts
Gust
kts
30/11:30pm 14.7 11.3 -1.8 32 6.9 S 6 7 3 4 1021.3 - 0.0
30/11:00pm 16.5 14.0 -0.7 31 7.5 NW 2 6 1 3 1021.1 - 0.0
30/10:30pm 16.8 14.7 -0.9 30 7.7 CALM 0 0 0 0 1021.1 - 0.0
30/10:00pm 17.4 15.3 -0.9 29 8.0 CALM 0 0 0 0 1020.8 - 0.0
30/09:30pm 16.9 14.9 -0.4 31 7.6 CALM 0 0 0 0 1020.8 - 0.0
30/09:00pm 17.6 15.3 0.5 31 7.7 W 2 7 1 4 1020.8 1020.2 0.0
30/08:30pm 18.3 14.8 -2.6 24 8.9 WNW 6 9 3 5 1020.6 - 0.0
30/08:00pm 18.7 14.7 -2.6 23 9.1 W 9 11 5 6 1020.5 - 0.0
30/07:30pm 19.6 15.5 -3.2 21 9.7 WSW 9 11 5 6 1020.2 - 0.0
30/07:00pm 20.8 16.8 -2.6 20 10.2 W 9 11 5 6 1019.9 - 0.0
30/06:30pm 22.3 18.2 -3.1 18 11.1 W 9 11 5 6 1019.7 - 0.0
30/06:00pm 24.2 19.5 -5.4 13 12.6 W 11 15 6 8 1019.6 1018.9 0.0
30/05:30pm 24.7 20.7 -5.6 13 12.9 N 7 9 4 5 1019.6 - 0.0
30/05:00pm 24.7 20.2 -6.7 12 13.1 N 9 17 5 9 1019.7 - 0.0
30/04:30pm 25.2 20.3 -6.9 11 13.4 NNW 11 19 6 10 1019.8 - 0.0
30/04:00pm 25.6 21.0 -7.4 11 13.7 NW 9 19 5 10 1019.7 - 0.0
30/03:30pm 25.3 21.6 -4.9 13 13.1 N 6 15 3 8 1019.9 - 0.0
30/03:00pm 25.3 20.8 -6.6 11 13.4 NW 9 19 5 10 1020.1 1019.4 0.0
30/02:30pm 25.4 20.2 -5.7 12 13.3 NW 13 19 7 10 1020.6 - 0.0
30/02:00pm 24.9 20.6 -5.1 13 12.9 NNE 9 26 5 14 1021.1 - 0.0
30/01:30pm 24.6 19.2 -4.9 14 12.7 NNE 15 20 8 11 1021.7 - 0.0
30/01:00pm 24.7 20.7 -5.2 13 12.8 NNE 7 20 4 11 1022.3 - 0.0
30/12:30pm 24.0 19.2 -6.1 13 12.6 NNW 11 19 6 10 1022.9 - 0.0
30/12:00pm 23.2 18.1 -5.2 14 12.0 N 13 20 7 11 1023.5 1022.9 0.0

Other Formats:

Comma delimited format used in spreadsheet applications
http://www.bom.gov.au/fwo/IDD60801/IDD60801.94461.axf

JavaScript Object Notation format (JSON) in row-major order
http://www.bom.gov.au/fwo/IDD60801/IDD60801.94461.json